createdAt,value
2023-09-27T00:02:31.428Z,3.63
2023-09-27T00:05:08.586Z,3.30
2023-09-27T00:07:42.574Z,3.60
2023-09-27T00:10:16.049Z,3.63
2023-09-27T00:12:49.240Z,3.83
2023-09-27T00:15:22.462Z,4.18
2023-09-27T00:17:55.570Z,4.90
2023-09-27T00:20:28.307Z,5.13
2023-09-27T00:23:01.625Z,4.57
2023-09-27T00:25:34.784Z,3.83
2023-09-27T00:28:07.531Z,4.50
2023-09-27T00:30:40.118Z,4.22
2023-09-27T00:33:12.989Z,4.30
2023-09-27T00:35:50.430Z,4.38
2023-09-27T00:38:23.263Z,4.50
2023-09-27T00:40:55.945Z,3.72
2023-09-27T00:43:31.167Z,3.67
2023-09-27T00:46:07.308Z,4.30
2023-09-27T00:48:40.101Z,4.00
2023-09-27T00:51:13.831Z,3.08
2023-09-27T00:53:50.784Z,3.70
2023-09-27T00:56:25.568Z,3.67
2023-09-27T00:58:59.260Z,3.72
2023-09-27T01:01:32.938Z,3.45
2023-09-27T01:04:06.314Z,3.80
2023-09-27T01:06:39.143Z,4.10
2023-09-27T01:09:15.069Z,3.75
2023-09-27T01:11:47.875Z,3.75
2023-09-27T01:14:20.768Z,3.30
2023-09-27T01:16:53.455Z,3.40
2023-09-27T01:19:26.247Z,3.85
2023-09-27T01:21:58.971Z,3.75
2023-09-27T01:24:37.644Z,4.72
2023-09-27T01:27:11.029Z,4.07
2023-09-27T01:29:43.699Z,4.03
2023-09-27T01:32:16.445Z,4.85
2023-09-27T01:34:49.075Z,4.25
2023-09-27T01:37:21.996Z,4.00
2023-09-27T01:39:55.921Z,4.70
2023-09-27T01:42:28.530Z,4.82
2023-09-27T01:45:01.166Z,4.35
2023-09-27T01:47:33.943Z,4.30
2023-09-27T01:50:10.607Z,4.43
2023-09-27T01:52:43.206Z,4.10
2023-09-27T01:55:16.338Z,4.15
2023-09-27T01:57:49.267Z,3.97
2023-09-27T02:00:22.482Z,4.72
2023-09-27T02:03:00.682Z,4.13
2023-09-27T02:05:33.713Z,5.00
2023-09-27T02:08:06.587Z,4.28
2023-09-27T02:10:39.344Z,4.28
2023-09-27T02:13:11.899Z,4.22
2023-09-27T02:15:44.687Z,4.75
2023-09-27T02:18:17.440Z,4.57
2023-09-27T02:20:50.523Z,4.65
2023-09-27T02:23:23.232Z,4.88
2023-09-27T02:25:59.972Z,4.80
2023-09-27T02:28:32.859Z,4.47
2023-09-27T02:31:11.988Z,4.22
2023-09-27T02:33:44.742Z,3.95
2023-09-27T02:36:17.463Z,4.35
2023-09-27T02:38:50.359Z,3.83
2023-09-27T02:41:23.127Z,4.60
2023-09-27T02:43:55.920Z,4.05
2023-09-27T02:46:28.599Z,4.63
2023-09-27T02:49:04.224Z,4.10
2023-09-27T02:51:38.553Z,4.88
2023-09-27T02:54:11.814Z,3.85
2023-09-27T02:56:44.849Z,5.18
2023-09-27T02:59:17.552Z,4.60
2023-09-27T03:01:50.305Z,4.32
2023-09-27T03:04:22.967Z,4.38
2023-09-27T03:06:56.535Z,4.40
2023-09-27T03:09:29.238Z,4.80
2023-09-27T03:12:04.407Z,4.47
2023-09-27T03:14:37.080Z,4.53
2023-09-27T03:17:10.391Z,4.82
2023-09-27T03:19:43.230Z,4.95
2023-09-27T03:22:16.011Z,5.00
2023-09-27T03:24:48.631Z,4.68
2023-09-27T03:27:21.346Z,5.20
2023-09-27T03:29:54.121Z,4.90
2023-09-27T03:32:27.274Z,5.22
2023-09-27T03:35:04.070Z,5.07
2023-09-27T03:37:36.793Z,4.85
2023-09-27T03:40:15.527Z,4.97
2023-09-27T03:42:48.710Z,5.18
2023-09-27T03:45:21.795Z,5.00
2023-09-27T03:47:54.462Z,4.80
2023-09-27T03:50:27.166Z,5.07
2023-09-27T03:53:00.228Z,5.22
2023-09-27T03:55:33.299Z,5.85
2023-09-27T03:58:06.023Z,4.80
2023-09-27T04:00:38.725Z,5.13
2023-09-27T04:03:11.782Z,4.65
2023-09-27T04:05:44.516Z,4.95
2023-09-27T04:08:18.904Z,5.30
2023-09-27T04:10:51.751Z,5.18
2023-09-27T04:13:24.402Z,4.80
2023-09-27T04:15:57.115Z,5.60
2023-09-27T04:18:29.727Z,5.38
2023-09-27T04:21:09.116Z,5.30
2023-09-27T04:23:42.966Z,4.60
2023-09-27T04:26:15.773Z,4.88
2023-09-27T04:28:48.407Z,4.38
2023-09-27T04:31:22.262Z,5.22
2023-09-27T04:33:55.162Z,5.35
2023-09-27T04:36:27.875Z,5.80
2023-09-27T04:39:00.513Z,5.25
2023-09-27T04:41:33.231Z,4.88
2023-09-27T04:44:06.334Z,4.82
2023-09-27T04:46:39.113Z,5.30
2023-09-27T04:49:11.785Z,5.30
2023-09-27T04:51:44.523Z,5.07
2023-09-27T04:54:18.231Z,4.93
2023-09-27T04:56:50.968Z,5.50
2023-09-27T04:59:23.715Z,5.05
2023-09-27T05:01:57.619Z,5.53
2023-09-27T05:04:30.298Z,5.70
2023-09-27T05:07:04.846Z,5.88
2023-09-27T05:09:37.655Z,5.72
2023-09-27T05:12:10.575Z,4.90
2023-09-27T05:14:43.164Z,4.97
2023-09-27T05:17:16.026Z,5.18
2023-09-27T05:19:49.236Z,5.82
2023-09-27T05:22:21.965Z,5.38
2023-09-27T05:24:54.560Z,5.10
2023-09-27T05:27:27.287Z,5.38
2023-09-27T05:29:59.946Z,5.50
2023-09-27T05:32:33.165Z,5.53
2023-09-27T05:35:06.843Z,4.85
2023-09-27T05:37:39.626Z,4.82
2023-09-27T05:40:13.105Z,4.72
2023-09-27T05:42:45.714Z,5.57
2023-09-27T05:45:18.320Z,4.70
2023-09-27T05:47:51.020Z,5.13
2023-09-27T05:50:24.251Z,5.13
2023-09-27T05:52:57.368Z,4.80
2023-09-27T05:55:30.658Z,5.53
2023-09-27T05:58:03.617Z,5.47
2023-09-27T06:00:41.347Z,4.93
2023-09-27T06:03:14.109Z,5.03
2023-09-27T06:05:47.568Z,5.32
2023-09-27T06:08:20.278Z,4.78
2023-09-27T06:10:52.976Z,4.82
2023-09-27T06:13:25.507Z,5.13
2023-09-27T06:16:00.146Z,5.15
2023-09-27T06:18:32.949Z,5.60
2023-09-27T06:21:05.711Z,5.07
2023-09-27T06:23:38.568Z,5.43
2023-09-27T06:26:11.475Z,5.53
2023-09-27T06:28:44.235Z,5.25
2023-09-27T06:31:16.921Z,6.05
2023-09-27T06:33:50.785Z,5.88
2023-09-27T06:36:23.617Z,5.63
2023-09-27T06:38:57.657Z,5.65
2023-09-27T06:41:30.409Z,5.35
2023-09-27T06:44:03.259Z,5.75
2023-09-27T06:46:48.005Z,6.00
2023-09-27T06:49:21.959Z,5.03
2023-09-27T06:51:54.547Z,4.85
2023-09-27T06:54:27.355Z,5.40
2023-09-27T06:56:59.967Z,5.20
2023-09-27T06:59:33.175Z,5.07
2023-09-27T07:02:07.277Z,4.85
2023-09-27T07:04:43.699Z,5.47
2023-09-27T07:07:16.312Z,5.13
2023-09-27T07:09:48.908Z,4.97
2023-09-27T07:12:21.568Z,4.80
2023-09-27T07:14:54.287Z,5.03
2023-09-27T07:17:27.071Z,4.82
2023-09-27T07:19:59.721Z,4.95
2023-09-27T07:22:32.700Z,5.00
2023-09-27T07:25:13.623Z,5.10
2023-09-27T07:27:51.430Z,5.20
2023-09-27T07:30:26.968Z,4.93
2023-09-27T07:32:59.640Z,5.20
2023-09-27T07:35:35.014Z,5.40
2023-09-27T07:38:08.943Z,5.05
2023-09-27T07:40:41.714Z,5.43
2023-09-27T07:43:15.462Z,5.00
2023-09-27T07:45:48.929Z,5.00
2023-09-27T07:48:22.912Z,5.38
2023-09-27T07:50:55.585Z,5.63
2023-09-27T07:53:28.493Z,5.35
2023-09-27T07:56:01.681Z,5.05
2023-09-27T07:58:34.873Z,5.55
2023-09-27T08:01:07.517Z,4.93
2023-09-27T08:03:40.275Z,5.45
2023-09-27T08:06:14.266Z,5.60
2023-09-27T08:08:47.231Z,5.22
2023-09-27T08:11:20.042Z,6.00
2023-09-27T08:13:55.383Z,5.53
2023-09-27T08:16:27.998Z,5.97
2023-09-27T08:19:00.602Z,5.43
2023-09-27T08:21:34.655Z,6.28
2023-09-27T08:24:07.887Z,5.68
2023-09-27T08:26:40.611Z,5.50
2023-09-27T08:29:15.180Z,5.90
2023-09-27T08:31:48.823Z,6.15
2023-09-27T08:34:21.670Z,5.25
2023-09-27T08:36:54.701Z,5.25
2023-09-27T08:39:28.384Z,5.57
2023-09-27T08:42:03.312Z,5.95
2023-09-27T08:44:37.682Z,5.72
2023-09-27T08:47:12.700Z,5.88
2023-09-27T08:49:51.295Z,5.30
2023-09-27T08:52:27.492Z,6.40
2023-09-27T08:55:00.212Z,5.30
2023-09-27T08:57:33.788Z,6.10
2023-09-27T09:00:14.887Z,5.78
2023-09-27T09:02:58.378Z,5.00
2023-09-27T09:05:32.350Z,5.32
2023-09-27T09:08:06.728Z,5.15
2023-09-27T09:10:40.100Z,5.07
2023-09-27T09:13:12.760Z,4.22
2023-09-27T09:15:49.718Z,4.32
2023-09-27T09:18:30.408Z,4.63
2023-09-27T09:21:09.788Z,4.85
2023-09-27T09:23:48.796Z,4.68
2023-09-27T09:26:30.818Z,5.53
2023-09-27T09:29:03.777Z,4.95
2023-09-27T09:31:37.006Z,5.30
2023-09-27T09:34:10.144Z,5.10
2023-09-27T09:36:42.704Z,5.30
2023-09-27T09:39:15.856Z,4.85
2023-09-27T09:41:51.222Z,4.75
2023-09-27T09:47:11.519Z,5.13
2023-09-27T09:49:46.413Z,4.63
2023-09-27T09:52:26.075Z,5.10
2023-09-27T09:55:11.498Z,4.95
2023-09-27T09:58:18.301Z,5.40
2023-09-27T10:00:55.166Z,5.40
2023-09-27T10:03:37.342Z,5.78
2023-09-27T10:06:11.879Z,6.13
2023-09-27T10:08:48.738Z,6.00
2023-09-27T10:11:24.421Z,4.88
2023-09-27T10:14:00.865Z,5.25
2023-09-27T10:16:34.280Z,5.40
2023-09-27T10:19:07.289Z,5.18
2023-09-27T10:22:07.066Z,5.15
2023-09-27T10:24:44.050Z,4.95
2023-09-27T10:27:16.844Z,5.40
2023-09-27T10:29:58.052Z,5.45
2023-09-27T10:32:30.921Z,5.55
2023-09-27T10:35:18.373Z,4.93
2023-09-27T10:38:00.275Z,4.30
2023-09-27T10:40:46.431Z,5.20
2023-09-27T10:43:36.799Z,4.97
2023-09-27T10:46:09.789Z,5.32
2023-09-27T10:48:44.158Z,4.47
2023-09-27T10:51:16.976Z,4.57
2023-09-27T10:53:51.550Z,4.40
2023-09-27T10:56:24.771Z,5.32
2023-09-27T10:58:58.041Z,4.63
2023-09-27T11:01:30.758Z,4.18
2023-09-27T11:04:05.566Z,4.10
2023-09-27T11:06:38.239Z,4.55
2023-09-27T11:09:13.300Z,3.50
2023-09-27T11:14:34.278Z,3.70
2023-09-27T11:17:23.775Z,3.45
2023-09-27T11:19:56.556Z,3.22
2023-09-27T11:22:30.288Z,3.50
2023-09-27T11:25:02.955Z,3.42
2023-09-27T11:27:35.548Z,3.50
2023-09-27T11:30:09.544Z,3.00
2023-09-27T11:32:51.611Z,3.33
2023-09-27T11:35:27.651Z,3.78
2023-09-27T11:38:14.622Z,2.90
2023-09-27T11:40:49.739Z,2.63
2023-09-27T11:43:31.973Z,2.72
2023-09-27T11:46:05.821Z,2.90
2023-09-27T11:48:38.671Z,3.05
2023-09-27T11:51:12.943Z,2.85
2023-09-27T11:53:46.868Z,3.83
2023-09-27T11:56:19.676Z,2.92
2023-09-27T11:58:52.422Z,2.90
2023-09-27T12:01:25.190Z,3.30
2023-09-27T12:03:59.270Z,2.65
2023-09-27T12:06:33.453Z,3.47
2023-09-27T12:09:06.604Z,3.40
2023-09-27T12:11:39.363Z,3.50
2023-09-27T12:14:12.118Z,3.20
2023-09-27T12:16:44.864Z,3.97
2023-09-27T12:19:17.458Z,3.67
2023-09-27T12:21:50.373Z,3.22
2023-09-27T12:24:23.123Z,3.58
2023-09-27T12:26:56.088Z,3.15
2023-09-27T12:29:28.873Z,3.00
2023-09-27T12:32:01.579Z,3.13
2023-09-27T12:34:34.490Z,3.10
2023-09-27T12:37:07.127Z,2.80
2023-09-27T12:39:39.927Z,3.30
2023-09-27T12:42:14.858Z,2.90
2023-09-27T12:44:47.921Z,2.70
2023-09-27T12:47:20.777Z,3.10
2023-09-27T12:49:53.509Z,3.10
2023-09-27T12:52:26.151Z,3.03
2023-09-27T12:54:58.821Z,3.20
2023-09-27T12:57:31.466Z,2.90
2023-09-27T13:00:06.478Z,3.15
2023-09-27T13:05:11.979Z,2.42
2023-09-27T13:07:44.810Z,2.80
2023-09-27T13:10:17.617Z,3.28
2023-09-27T13:12:50.551Z,2.75
2023-09-27T13:15:23.124Z,2.97
2023-09-27T13:17:55.840Z,2.53
2023-09-27T13:20:28.613Z,2.65
2023-09-27T13:23:06.859Z,2.47
2023-09-27T13:25:39.724Z,1.95
2023-09-27T13:28:15.256Z,2.28
2023-09-27T13:30:51.636Z,1.75
2023-09-27T13:33:24.803Z,2.08
2023-09-27T13:36:01.156Z,2.00
2023-09-27T13:38:34.552Z,1.90
2023-09-27T13:41:17.452Z,1.77
2023-09-27T13:43:55.864Z,2.20
2023-09-27T13:46:30.829Z,1.52
2023-09-27T13:49:04.440Z,1.88
2023-09-27T13:52:04.176Z,1.75
2023-09-27T13:54:39.662Z,1.83
2023-09-27T13:57:15.409Z,1.50
2023-09-27T13:59:48.395Z,1.92
2023-09-27T14:02:22.000Z,2.20
2023-09-27T14:04:55.057Z,2.40
2023-09-27T14:07:27.675Z,1.88
2023-09-27T14:10:00.401Z,1.90
2023-09-27T14:12:33.136Z,2.00
2023-09-27T14:15:07.666Z,2.45
2023-09-27T14:17:40.478Z,1.90
2023-09-27T14:20:18.727Z,2.05
2023-09-27T14:22:53.494Z,2.08
2023-09-27T14:25:27.803Z,1.73
2023-09-27T14:28:06.707Z,1.70
2023-09-27T14:30:42.066Z,1.92
2023-09-27T14:33:14.757Z,1.90
2023-09-27T14:38:23.325Z,2.28
2023-09-27T14:40:55.952Z,1.80
2023-09-27T14:43:29.959Z,1.90
2023-09-27T14:46:02.778Z,2.00
2023-09-27T14:48:35.584Z,2.00
2023-09-27T14:51:13.053Z,2.28
2023-09-27T14:53:45.949Z,2.05
2023-09-27T14:56:18.757Z,2.08
2023-09-27T14:58:51.563Z,2.03
2023-09-27T15:01:24.220Z,1.95
2023-09-27T15:03:57.227Z,2.17
2023-09-27T15:06:30.070Z,2.42
2023-09-27T15:09:02.911Z,1.80
2023-09-27T15:11:36.005Z,1.92
2023-09-27T15:14:08.662Z,1.98
2023-09-27T15:16:41.529Z,2.00
2023-09-27T15:19:19.851Z,2.40
2023-09-27T15:21:52.526Z,1.95
2023-09-27T15:24:25.174Z,2.25
2023-09-27T15:26:58.832Z,2.05
2023-09-27T15:29:31.852Z,3.00
2023-09-27T15:32:04.719Z,2.10
2023-09-27T15:34:37.395Z,1.90
2023-09-27T15:37:10.518Z,2.13
2023-09-27T15:39:43.775Z,2.05
2023-09-27T15:42:16.497Z,2.03
2023-09-27T15:44:50.999Z,2.20
2023-09-27T15:47:23.624Z,2.00
2023-09-27T15:49:56.220Z,2.03
2023-09-27T15:52:28.928Z,1.83
2023-09-27T15:55:02.726Z,1.83
2023-09-27T15:57:35.919Z,2.47
2023-09-27T16:00:09.667Z,1.88
2023-09-27T16:02:42.273Z,2.13
2023-09-27T16:05:14.869Z,2.20
2023-09-27T16:07:47.521Z,1.67
2023-09-27T16:10:20.555Z,1.48
2023-09-27T16:12:53.281Z,1.90
2023-09-27T16:15:25.923Z,1.83
2023-09-27T16:17:58.561Z,2.97
2023-09-27T16:20:31.241Z,2.55
2023-09-27T16:23:05.334Z,1.77
2023-09-27T16:25:39.448Z,1.70
2023-09-27T16:28:12.800Z,2.28
2023-09-27T16:30:46.012Z,2.22
2023-09-27T16:33:18.806Z,2.47
2023-09-27T16:35:52.266Z,1.98
2023-09-27T16:38:24.921Z,1.90
2023-09-27T16:40:57.707Z,1.92
2023-09-27T16:43:30.876Z,3.45
2023-09-27T16:46:08.492Z,2.15
2023-09-27T16:48:41.371Z,1.70
2023-09-27T16:51:13.933Z,2.10
2023-09-27T16:53:46.574Z,2.47
2023-09-27T16:56:19.220Z,2.33
2023-09-27T16:58:52.109Z,1.98
2023-09-27T17:01:25.266Z,1.75
2023-09-27T17:03:57.974Z,2.45
2023-09-27T17:06:30.636Z,2.20
2023-09-27T17:09:05.498Z,2.35
2023-09-27T17:11:38.150Z,2.45
2023-09-27T17:14:10.740Z,3.03
2023-09-27T17:16:44.735Z,2.47
2023-09-27T17:19:26.784Z,2.60
2023-09-27T17:21:59.863Z,3.10
2023-09-27T17:24:32.564Z,2.75
2023-09-27T17:27:05.184Z,2.72
2023-09-27T17:29:37.778Z,3.08
2023-09-27T17:32:10.509Z,2.90
2023-09-27T17:34:43.197Z,3.30
2023-09-27T17:37:15.977Z,3.10
2023-09-27T17:39:48.545Z,3.50
2023-09-27T17:42:21.190Z,3.15
2023-09-27T17:44:53.835Z,3.03
2023-09-27T17:47:26.466Z,3.55
2023-09-27T17:49:59.135Z,3.38
2023-09-27T17:52:32.081Z,3.45
2023-09-27T17:55:05.333Z,3.65
2023-09-27T17:57:37.972Z,3.75
2023-09-27T18:00:11.421Z,3.53
2023-09-27T18:02:44.170Z,3.13
2023-09-27T18:05:16.911Z,3.90
2023-09-27T18:07:49.759Z,4.32
2023-09-27T18:10:22.445Z,4.53
2023-09-27T18:12:55.076Z,3.30
2023-09-27T18:15:28.845Z,3.17
2023-09-27T18:18:01.689Z,3.78
2023-09-27T18:20:38.004Z,3.40
2023-09-27T18:23:10.674Z,3.38
2023-09-27T18:25:43.291Z,3.22
2023-09-27T18:28:15.928Z,3.22
2023-09-27T18:30:48.532Z,3.70
2023-09-27T18:33:21.135Z,3.65
2023-09-27T18:35:54.934Z,6.68
2023-09-27T18:38:27.515Z,3.35
2023-09-27T18:41:00.330Z,3.10
2023-09-27T18:43:33.164Z,3.60
2023-09-27T18:46:06.282Z,3.47
2023-09-27T18:48:39.021Z,3.17
2023-09-27T18:51:11.861Z,3.80
2023-09-27T18:53:44.934Z,3.25
2023-09-27T18:56:20.835Z,3.45
2023-09-27T18:58:59.886Z,3.42
2023-09-27T19:01:34.727Z,3.67
2023-09-27T19:04:08.827Z,3.95
2023-09-27T19:06:42.086Z,3.50
2023-09-27T19:09:15.489Z,4.25
2023-09-27T19:11:48.713Z,3.75
2023-09-27T19:14:21.547Z,4.20
2023-09-27T19:16:54.489Z,4.00
2023-09-27T19:19:29.631Z,4.03
2023-09-27T19:22:04.987Z,3.70
2023-09-27T19:24:39.036Z,3.50
2023-09-27T19:27:14.520Z,3.60
2023-09-27T19:29:47.412Z,3.42
2023-09-27T19:32:20.373Z,4.00
2023-09-27T19:34:54.481Z,3.75
2023-09-27T19:37:27.173Z,4.13
2023-09-27T19:40:00.056Z,3.70
2023-09-27T19:42:32.728Z,3.22
2023-09-27T19:45:06.682Z,3.85
2023-09-27T19:47:40.382Z,3.60
2023-09-27T19:50:13.409Z,4.20
2023-09-27T19:52:46.541Z,3.80
2023-09-27T19:55:21.085Z,3.67
2023-09-27T19:57:54.752Z,4.03
2023-09-27T20:00:27.732Z,3.72
2023-09-27T20:03:00.642Z,4.10
2023-09-27T20:05:34.101Z,4.43
2023-09-27T20:08:07.232Z,3.83
2023-09-27T20:10:40.203Z,4.28
2023-09-27T20:13:12.980Z,3.92
2023-09-27T20:15:46.043Z,3.83
2023-09-27T20:18:18.947Z,3.75
2023-09-27T20:20:51.952Z,3.75
2023-09-27T20:23:24.621Z,4.35
2023-09-27T20:25:57.408Z,3.72
2023-09-27T20:28:30.344Z,3.78
2023-09-27T20:31:03.123Z,3.15
2023-09-27T20:33:35.998Z,3.75
2023-09-27T20:36:13.480Z,3.10
2023-09-27T20:38:46.207Z,3.30
2023-09-27T20:41:22.745Z,3.60
2023-09-27T20:43:55.969Z,3.40
2023-09-27T20:46:29.431Z,3.00
2023-09-27T20:49:03.005Z,3.10
2023-09-27T20:51:35.692Z,2.55
2023-09-27T20:54:08.562Z,2.80
2023-09-27T20:56:41.305Z,2.80
2023-09-27T20:59:14.272Z,3.15
2023-09-27T21:01:47.559Z,3.03
2023-09-27T21:04:21.450Z,3.22
2023-09-27T21:06:54.295Z,2.88
2023-09-27T21:09:27.004Z,2.80
2023-09-27T21:12:01.146Z,2.63
2023-09-27T21:14:38.197Z,2.70
2023-09-27T21:17:10.977Z,2.53
2023-09-27T21:19:44.104Z,2.70
2023-09-27T21:22:16.825Z,2.33
2023-09-27T21:24:49.496Z,2.72
2023-09-27T21:27:22.143Z,2.10
2023-09-27T21:29:55.827Z,2.40
2023-09-27T21:32:28.565Z,2.22
2023-09-27T21:35:01.402Z,2.33
2023-09-27T21:37:34.126Z,2.33
2023-09-27T21:40:08.377Z,2.20
2023-09-27T21:42:41.121Z,2.40
2023-09-27T21:45:13.927Z,2.30
2023-09-27T21:47:46.696Z,2.83
2023-09-27T21:50:19.460Z,2.58
2023-09-27T21:52:52.119Z,2.13
2023-09-27T21:55:24.826Z,2.42
2023-09-27T21:57:57.842Z,2.22
2023-09-27T22:00:30.955Z,2.33
2023-09-27T22:03:04.701Z,2.58
2023-09-27T22:05:37.687Z,2.20
2023-09-27T22:08:17.784Z,2.17
2023-09-27T22:10:51.182Z,2.28
2023-09-27T22:13:29.561Z,2.67
2023-09-27T22:16:11.612Z,2.45
2023-09-27T22:18:49.987Z,2.40
2023-09-27T22:21:31.608Z,2.20
2023-09-27T22:24:13.236Z,2.05
2023-09-27T22:29:20.921Z,2.40
2023-09-27T22:31:58.679Z,2.47
2023-09-27T22:34:38.611Z,2.90
2023-09-27T22:37:14.767Z,2.35
2023-09-27T22:39:49.343Z,2.47
2023-09-27T22:42:24.420Z,1.98
2023-09-27T22:44:57.254Z,2.28
2023-09-27T22:47:29.995Z,3.15
2023-09-27T22:50:03.946Z,2.85
2023-09-27T22:52:36.760Z,2.35
2023-09-27T22:55:09.621Z,2.20
2023-09-27T22:57:44.660Z,2.55
2023-09-27T23:00:25.218Z,2.47
2023-09-27T23:02:59.394Z,2.60
2023-09-27T23:05:41.401Z,2.33
2023-09-27T23:11:00.816Z,2.38
2023-09-27T23:13:33.711Z,2.70
2023-09-27T23:16:25.766Z,2.60
2023-09-27T23:19:01.527Z,2.33
2023-09-27T23:21:37.121Z,2.40
2023-09-27T23:24:19.653Z,3.08
2023-09-27T23:26:52.382Z,2.25
2023-09-27T23:29:31.034Z,1.80
2023-09-27T23:32:18.649Z,2.35
2023-09-27T23:34:54.546Z,2.45
2023-09-27T23:37:34.464Z,2.22
2023-09-27T23:40:15.380Z,2.42
2023-09-27T23:42:48.406Z,2.30
2023-09-27T23:45:21.944Z,2.28
2023-09-27T23:47:57.600Z,2.03
2023-09-27T23:50:33.385Z,2.30
2023-09-27T23:53:09.854Z,2.00
2023-09-27T23:55:43.658Z,2.00
2023-09-27T23:58:16.376Z,2.28
